Terminal Aerodrome Forecast
Issued by NWS

Home | Current Version | Previous Version | Text Only | Print | Product List | Glossary On
Versions: 1 2 3 4 5 6 7 8 9 10 11 12 13
000
FTUS44 KTSA 312300
TAFXNA
TAF
KXNA 312340Z 0100/0124 17007KT 6SM -RA OVC090
     FM010300 17009G15KT 5SM -RA OVC050
     FM010600 17010G16KT 4SM -RA BR OVC020
     FM010800 18008KT 4SM -RA BR OVC007
      TEMPO 0108/0112 2SM -RA BR OVC004
     FM011200 20008KT 3SM -RA BR OVC004
     FM011600 26012G19KT 5SM -RA BR OVC012
     FM011900 29013G20KT P6SM OVC025=

USA.gov is the U.S. government's official web portal to all federal, state and local government web resources and services.